Time;durP1;ratioP1;P1;durP2;ratioP2;P2;SDS_P1;SDS_P2;PMS_P1;PMS_P2;Temp;Humidity;BMP_temperature;BMP_pressure;BME280_temperature;BME280_humidity;BME280_pressure;Samples;Min_cycle;Max_cycle;Signal;HPM_P1;HPM_P2
2023/10/14 00:01:35;;;;;;;23.40;11.27;;;18.70;99.90;;;18.75;81.39;98973.88;5043381;28;20123;-84
2023/10/14 00:04:04;;;;;;;23.52;11.73;;;18.60;99.90;;;18.82;81.31;98984.28;5070700;28;20045;-85
2023/10/14 00:06:34;;;;;;;22.98;11.20;;;18.60;99.90;;;18.71;81.71;98981.00;5051371;28;20580;-84
2023/10/14 00:09:11;;;;;;;22.05;11.85;;;18.60;99.90;;;18.65;81.87;98978.66;5043332;28;20103;-84
2023/10/14 00:11:46;;;;;;;25.02;13.13;;;18.50;99.90;;;18.64;81.98;98983.28;5050719;28;20071;-84
2023/10/14 00:14:16;;;;;;;24.27;11.52;;;18.60;99.90;;;18.61;82.02;98973.06;5043485;28;20044;-84
2023/10/14 00:16:49;;;;;;;21.58;12.10;;;18.60;99.90;;;18.55;82.07;98985.06;5062994;28;20040;-84
2023/10/14 00:19:18;;;;;;;19.85;11.65;;;18.50;99.90;;;18.57;82.70;98987.47;5061787;28;20044;-84
2023/10/14 00:21:48;;;;;;;26.35;12.23;;;18.50;99.90;;;18.60;82.53;98982.28;5055241;28;20504;-84
2023/10/14 00:24:25;;;;;;;28.17;12.00;;;18.50;99.90;;;18.47;82.34;98985.75;5043123;28;20051;-84
2023/10/14 00:26:53;;;;;;;23.77;12.15;;;18.40;99.90;;;18.45;82.57;99006.88;5038995;28;20060;-84
2023/10/14 00:29:21;;;;;;;24.60;11.65;;;18.40;99.90;;;18.32;83.58;99003.06;5048578;28;20127;-84
2023/10/14 00:31:53;;;;;;;21.92;10.93;;;18.30;99.90;;;18.24;83.66;99022.63;5054313;28;20078;-84
2023/10/14 00:34:23;;;;;;;27.23;10.38;;;18.30;99.90;;;18.21;84.12;99028.63;5055159;28;20107;-85
2023/10/14 00:36:50;;;;;;;22.95;11.73;;;18.20;99.90;;;18.15;85.23;99032.50;5048691;28;20526;-85
2023/10/14 00:39:23;;;;;;;19.35;10.35;;;18.20;99.90;;;18.14;85.72;99023.59;5054818;28;20123;-85
2023/10/14 00:41:52;;;;;;;25.88;11.32;;;18.10;99.90;;;18.12;86.47;99058.19;5056136;28;20131;-85
2023/10/14 00:44:21;;;;;;;23.25;12.10;;;18.10;99.90;;;18.18;86.22;99046.19;5054894;28;20029;-85
2023/10/14 00:46:50;;;;;;;20.40;11.13;;;18.10;99.90;;;18.11;86.37;99026.91;5064929;28;20067;-85
2023/10/14 00:49:21;;;;;;;20.50;9.63;;;18.00;99.90;;;18.11;86.40;99021.50;5050348;28;20063;-85
2023/10/14 00:51:55;;;;;;;20.88;10.48;;;18.00;99.90;;;18.10;85.73;99027.19;5070698;28;20056;-85
2023/10/14 00:54:52;;;;;;;18.45;9.27;;;18.00;99.90;;;18.06;85.74;99018.09;5038159;28;20510;-84
2023/10/14 00:57:21;;;;;;;21.30;10.02;;;18.00;99.90;;;18.05;85.84;99024.56;5048919;28;20131;-85
2023/10/14 00:59:51;;;;;;;24.35;10.10;;;18.00;99.90;;;18.10;85.46;99048.78;5045242;28;20143;-85
2023/10/14 01:02:29;;;;;;;22.23;9.68;;;18.00;99.90;;;18.09;85.80;99047.97;5023846;28;20051;-85
2023/10/14 01:04:58;;;;;;;25.15;10.07;;;18.00;99.90;;;18.12;85.75;99052.78;5069606;28;20048;-85
2023/10/14 01:07:26;;;;;;;15.63;9.00;;;18.00;99.90;;;18.17;85.89;99033.81;5041140;28;20051;-85
2023/10/14 01:09:54;;;;;;;18.67;9.60;;;18.00;99.90;;;18.13;85.66;99049.00;5051123;28;20076;-85
2023/10/14 01:12:27;;;;;;;22.13;10.82;;;18.00;99.90;;;18.13;85.85;99034.69;5058051;28;20099;-85
2023/10/14 01:14:58;;;;;;;17.92;9.35;;;18.00;99.90;;;18.08;86.03;99035.59;5032961;28;20101;-85
2023/10/14 01:17:28;;;;;;;21.17;9.88;;;18.00;99.90;;;18.07;86.17;99046.69;5075674;28;20051;-85
2023/10/14 01:19:59;;;;;;;24.65;9.55;;;17.90;99.90;;;18.10;86.08;99075.75;5053504;28;20415;-85
2023/10/14 01:22:29;;;;;;;22.58;10.45;;;18.00;99.90;;;17.95;86.72;99155.84;5046118;28;20036;-85
2023/10/14 01:24:56;;;;;;;10.07;4.13;;;17.80;99.90;;;17.89;83.74;99146.22;5053132;28;20059;-85
2023/10/14 01:27:25;;;;;;;15.25;4.35;;;17.70;99.90;;;17.90;81.25;99147.81;5070641;28;20072;-84
2023/10/14 01:29:53;;;;;;;7.60;3.17;;;17.60;99.90;;;17.83;80.61;99146.59;5053554;28;20128;-85
2023/10/14 01:32:42;;;;;;;6.63;2.30;;;17.50;99.90;;;17.75;80.05;99145.34;5041428;28;20044;-84
2023/10/14 01:35:25;;;;;;;6.85;2.00;;;17.40;99.90;;;17.66;78.23;99149.75;5040449;28;20044;-84
2023/10/14 01:37:55;;;;;;;4.72;1.70;;;17.30;99.90;;;17.60;78.73;99161.69;5060745;28;20416;-85
2023/10/14 01:40:30;;;;;;;2.47;0.90;;;17.30;99.90;;;17.32;77.13;99190.34;5044357;28;20041;-85
2023/10/14 01:43:05;;;;;;;3.08;0.80;;;17.00;99.90;;;17.30;78.03;99203.31;5067625;28;20127;-85
2023/10/14 01:45:39;;;;;;;2.30;0.70;;;17.00;99.90;;;17.20;77.89;99209.59;5048348;28;20508;-85
2023/10/14 01:48:19;;;;;;;2.45;0.80;;;16.80;99.90;;;17.29;77.38;99217.88;5050685;28;20048;-85
2023/10/14 01:50:52;;;;;;;1.42;0.60;;;16.80;99.90;;;17.25;76.27;99221.13;5072211;28;20039;-85
2023/10/14 01:53:24;;;;;;;5.35;0.82;;;16.80;99.90;;;17.20;76.38;99202.31;5032112;28;20086;-85
2023/10/14 01:55:54;;;;;;;2.15;0.60;;;16.80;99.90;;;17.25;75.56;99206.84;5037280;28;20041;-85
2023/10/14 01:58:29;;;;;;;3.55;0.70;;;16.80;99.90;;;17.27;75.27;99215.44;5071354;28;20037;-85
2023/10/14 02:01:11;;;;;;;2.17;0.70;;;16.80;99.90;;;17.27;74.96;99215.44;5053144;28;20499;-85
2023/10/14 02:03:43;;;;;;;4.30;0.70;;;16.80;99.90;;;17.27;74.93;99218.13;5038699;28;20136;-85
2023/10/14 02:06:16;;;;;;;4.60;0.70;;;16.80;99.90;;;17.25;74.57;99233.81;5046692;28;20045;-85
2023/10/14 02:08:48;;;;;;;1.65;0.50;;;16.80;99.90;;;17.25;74.69;99237.28;5038994;28;20048;-85
2023/10/14 02:11:20;;;;;;;1.63;0.50;;;16.70;99.90;;;17.25;74.49;99244.56;5073880;28;20040;-85
2023/10/14 02:13:49;;;;;;;3.33;0.65;;;16.80;99.90;;;17.22;74.04;99253.22;5069858;28;20120;-85
2023/10/14 02:16:25;;;;;;;2.13;0.70;;;16.70;99.90;;;17.19;74.13;99235.75;5068717;28;20048;-85
2023/10/14 02:19:00;;;;;;;2.05;0.63;;;16.70;99.90;;;17.18;74.26;99249.50;5055927;28;20076;-85
2023/10/14 02:21:33;;;;;;;2.03;0.60;;;16.60;99.90;;;17.17;74.37;99250.56;5055902;28;20055;-85
2023/10/14 02:24:04;;;;;;;1.95;0.50;;;16.70;99.90;;;17.15;74.34;99263.53;5049873;28;20071;-85
2023/10/14 02:26:33;;;;;;;2.20;0.70;;;16.70;99.90;;;17.11;73.43;99276.78;5054309;28;20093;-85
2023/10/14 02:29:01;;;;;;;2.22;0.80;;;16.60;99.90;;;17.08;74.11;99279.22;5051645;28;20052;-85
2023/10/14 02:31:35;;;;;;;1.83;0.70;;;16.50;99.90;;;17.11;74.14;99289.44;5069370;28;20049;-85
2023/10/14 02:34:06;;;;;;;5.50;1.00;;;16.60;99.90;;;17.10;74.47;99294.03;5051964;28;20059;-85
2023/10/14 02:36:36;;;;;;;2.93;1.00;;;16.60;99.90;;;17.08;74.02;99295.38;5056094;28;20033;-85
2023/10/14 02:39:13;;;;;;;4.15;1.45;;;16.50;99.90;;;17.08;74.23;99303.47;5063882;28;20299;-85
2023/10/14 02:41:44;;;;;;;5.25;2.30;;;16.50;99.90;;;17.08;74.17;99303.47;5055443;28;20094;-85
2023/10/14 02:44:28;;;;;;;6.53;2.58;;;16.50;99.90;;;17.01;74.14;99314.56;5055786;28;20044;-85
2023/10/14 02:47:01;;;;;;;5.55;3.05;;;16.50;99.90;;;16.94;74.07;99323.00;5046194;28;20053;-85
2023/10/14 02:49:35;;;;;;;5.90;2.83;;;16.40;99.90;;;16.91;74.36;99328.13;5026562;28;20040;-85
2023/10/14 02:52:08;;;;;;;4.97;2.80;;;16.40;99.90;;;16.93;74.57;99340.25;5052981;28;20516;-85
2023/10/14 02:54:40;;;;;;;6.97;3.53;;;16.40;99.90;;;16.94;74.59;99333.75;5061625;28;20037;-85
2023/10/14 02:57:14;;;;;;;8.02;4.53;;;16.40;99.90;;;16.93;74.17;99345.63;5050041;28;20527;-85
2023/10/14 02:59:48;;;;;;;10.00;5.00;;;16.40;99.90;;;16.93;74.22;99351.00;5046966;28;20071;-85
2023/10/14 03:02:25;;;;;;;11.80;5.93;;;16.40;99.90;;;16.87;74.55;99346.72;5032423;28;20052;-85
2023/10/14 03:05:09;;;;;;;10.20;6.50;;;16.40;99.90;;;16.91;75.19;99355.84;5059706;28;20056;-85
2023/10/14 03:07:55;;;;;;;11.65;6.68;;;16.40;99.90;;;16.91;75.05;99369.31;5130243;27;20407;-87
2023/10/14 03:10:34;;;;;;;9.15;6.15;;;16.40;99.90;;;16.88;74.78;99375.25;5129863;28;20093;-86
2023/10/14 03:13:02;;;;;;;10.07;6.15;;;16.40;99.90;;;16.85;75.17;99396.59;5104807;28;20121;-87
2023/10/14 03:15:31;;;;;;;9.75;5.90;;;16.40;99.90;;;16.82;75.67;99413.28;5097981;28;20044;-86
2023/10/14 03:18:01;;;;;;;14.43;3.90;;;16.30;99.90;;;16.63;74.69;99440.00;5121103;28;20048;-87
2023/10/14 03:20:39;;;;;;;8.07;2.53;;;16.20;99.90;;;16.57;74.21;99455.38;5123798;28;20574;-86
2023/10/14 03:23:19;;;;;;;9.25;2.80;;;16.10;99.90;;;16.41;73.53;99462.72;5116239;28;20067;-87
2023/10/14 03:25:48;;;;;;;5.88;2.10;;;15.90;99.90;;;16.23;73.81;99480.25;5115186;27;20054;-86
2023/10/14 03:28:16;;;;;;;7.07;1.88;;;15.80;99.90;;;16.16;73.92;99487.00;5110212;28;20062;-86
2023/10/14 03:30:47;;;;;;;6.45;1.50;;;15.70;99.90;;;16.10;73.83;99485.38;5111770;28;20043;-86
2023/10/14 03:33:19;;;;;;;5.75;1.75;;;15.60;99.90;;;16.09;72.88;99510.66;5115920;28;20525;-86
2023/10/14 03:35:57;;;;;;;7.15;1.80;;;15.60;99.90;;;15.98;73.25;99517.16;5120401;28;20475;-86
2023/10/14 03:38:33;;;;;;;11.07;1.85;;;15.50;99.90;;;15.90;73.59;99530.03;5098542;28;20044;-86
2023/10/14 03:41:03;;;;;;;11.55;2.00;;;15.40;99.90;;;15.93;73.85;99529.50;5120378;28;20400;-86
2023/10/14 03:43:41;;;;;;;9.23;1.63;;;15.40;99.90;;;15.94;73.71;99543.75;5114659;28;20098;-87
2023/10/14 03:46:12;;;;;;;8.38;2.10;;;15.40;99.90;;;16.00;74.07;99560.69;5124096;28;20578;-86
2023/10/14 03:48:47;;;;;;;8.25;1.75;;;15.50;99.90;;;16.06;73.66;99573.09;5115282;28;20115;-86
2023/10/14 03:51:24;;;;;;;5.70;1.55;;;15.50;99.90;;;15.95;73.15;99556.94;5098516;28;20533;-86
2023/10/14 03:53:54;;;;;;;4.97;1.45;;;15.50;99.90;;;16.02;73.22;99564.75;5126550;28;20581;-86
2023/10/14 03:56:25;;;;;;;7.80;1.83;;;15.50;99.90;;;16.06;72.89;99565.81;5089107;28;20031;-87
2023/10/14 03:58:55;;;;;;;7.32;1.92;;;15.50;99.90;;;16.06;72.15;99575.78;5120106;28;20044;-87
2023/10/14 04:01:28;;;;;;;6.32;1.70;;;15.50;99.90;;;16.04;72.68;99581.41;5104446;28;20614;-86
2023/10/14 04:03:56;;;;;;;9.52;1.80;;;15.50;99.90;;;16.04;72.36;99586.00;5112217;28;20464;-87
2023/10/14 04:06:25;;;;;;;8.60;2.20;;;15.50;99.90;;;16.05;72.07;99595.66;5124638;28;20040;-86
2023/10/14 04:08:57;;;;;;;8.75;1.80;;;15.50;99.90;;;16.04;72.32;99591.38;5095822;28;20142;-86
2023/10/14 04:11:28;;;;;;;6.85;1.80;;;15.50;99.90;;;16.05;71.76;99609.91;5067849;28;20059;-86
2023/10/14 04:14:04;;;;;;;11.63;1.83;;;15.50;99.90;;;16.06;71.73;99616.13;5126811;28;20048;-86
2023/10/14 04:16:49;;;;;;;12.27;2.17;;;15.50;99.90;;;16.07;71.59;99620.44;5114838;27;20044;-86
2023/10/14 04:19:27;;;;;;;11.30;2.53;;;15.50;99.90;;;15.98;71.33;99640.84;5085558;28;20039;-87
2023/10/14 04:21:59;;;;;;;10.50;2.05;;;15.50;99.90;;;15.92;71.76;99642.72;5080666;28;20135;-86
2023/10/14 04:24:45;;;;;;;6.45;2.17;;;15.40;99.90;;;15.94;71.83;99641.38;5090388;28;20121;-86
2023/10/14 04:27:22;;;;;;;11.02;1.98;;;15.50;99.90;;;15.94;71.85;99656.72;5105360;28;20141;-86
2023/10/14 04:29:58;;;;;;;12.38;2.28;;;15.50;99.90;;;15.91;71.70;99659.94;5092086;28;20052;-86
2023/10/14 04:32:27;;;;;;;10.13;2.20;;;15.40;99.90;;;15.88;71.83;99658.59;5113498;28;20044;-87
2023/10/14 04:34:57;;;;;;;12.32;2.47;;;15.40;99.90;;;15.88;71.29;99663.97;5079971;28;20036;-87
2023/10/14 04:37:27;;;;;;;12.23;2.53;;;15.40;99.90;;;15.87;70.86;99664.25;5108039;28;20047;-87
2023/10/14 04:39:59;;;;;;;11.03;2.73;;;15.30;99.90;;;15.86;70.73;99673.34;5097829;28;20055;-86
2023/10/14 04:42:36;;;;;;;10.50;2.38;;;15.30;99.90;;;15.83;70.61;99677.41;5109995;28;20340;-86
2023/10/14 04:45:07;;;;;;;10.52;2.70;;;15.30;99.90;;;15.81;70.87;99684.09;5088682;28;20484;-86
2023/10/14 04:47:37;;;;;;;12.77;3.00;;;15.20;99.90;;;15.82;70.61;99691.13;5088403;28;20048;-86
2023/10/14 04:50:13;;;;;;;11.65;2.53;;;15.20;99.90;;;15.78;69.88;99698.91;5110164;28;20077;-86
2023/10/14 04:52:44;;;;;;;12.55;2.60;;;15.20;99.90;;;15.75;69.71;99701.28;5083262;28;20055;-86
2023/10/14 04:58:23;;;;;;;12.32;2.85;;;15.10;99.90;;;15.67;69.29;99716.88;5105352;28;20418;-86
2023/10/14 05:00:52;;;;;;;10.30;2.47;;;15.10;99.90;;;15.63;69.43;99714.94;5099083;28;20064;-86
2023/10/14 05:03:22;;;;;;;9.02;2.30;;;15.00;99.90;;;15.58;69.17;99725.69;5098857;28;20048;-86
2023/10/14 05:05:55;;;;;;;16.00;2.80;;;15.00;99.90;;;15.54;69.18;99741.50;5083459;28;20098;-86
2023/10/14 05:08:27;;;;;;;11.52;2.45;;;15.00;99.90;;;15.50;69.21;99748.47;5080665;28;20039;-86
2023/10/14 05:10:56;;;;;;;16.75;3.38;;;15.00;99.90;;;15.48;69.13;99753.31;5107263;28;20051;-86
2023/10/14 05:13:31;;;;;;;10.63;2.90;;;14.90;99.90;;;15.44;69.37;99755.72;5089539;28;20555;-86
2023/10/14 05:16:15;;;;;;;13.65;3.05;;;14.90;99.90;;;15.41;69.26;99766.97;5095987;28;20125;-87
2023/10/14 05:18:58;;;;;;;12.70;2.97;;;14.80;99.90;;;15.39;69.50;99769.13;5063176;28;20044;-86
2023/10/14 05:21:36;;;;;;;12.80;2.95;;;14.80;99.90;;;15.35;69.35;99770.69;5088534;28;20407;-86
2023/10/14 05:24:05;;;;;;;13.52;2.50;;;14.80;99.90;;;15.32;69.21;99778.47;5090676;28;20049;-86
2023/10/14 05:26:44;;;;;;;9.00;2.08;;;14.80;99.90;;;15.33;69.39;99785.47;5089107;28;20043;-86
2023/10/14 05:29:16;;;;;;;12.38;2.00;;;14.80;99.90;;;15.31;69.10;99788.41;5080615;28;20041;-86
2023/10/14 05:31:44;;;;;;;12.55;2.40;;;14.80;99.90;;;15.26;69.26;99788.38;5100793;28;20056;-86
2023/10/14 05:34:13;;;;;;;11.70;2.33;;;14.70;99.90;;;15.27;69.20;99797.25;5111406;28;20097;-86
2023/10/14 05:36:41;;;;;;;10.82;2.20;;;14.70;99.90;;;15.25;68.92;99810.94;5098388;28;20396;-86
2023/10/14 05:39:10;;;;;;;9.93;2.17;;;14.70;99.90;;;15.21;68.79;99809.84;5103751;28;20040;-86
2023/10/14 05:41:39;;;;;;;9.68;2.22;;;14.60;99.90;;;15.10;69.09;99814.31;5098892;28;20044;-86
2023/10/14 05:44:07;;;;;;;8.73;1.95;;;14.60;99.90;;;15.05;69.47;99825.03;5093470;28;20089;-86
2023/10/14 05:46:35;;;;;;;11.80;2.50;;;14.50;99.90;;;15.04;69.71;99815.34;5104787;28;20044;-86
2023/10/14 05:49:04;;;;;;;8.40;1.75;;;14.50;99.90;;;15.10;69.30;99825.06;5098599;28;20044;-87
2023/10/14 05:51:32;;;;;;;10.45;2.35;;;14.50;99.90;;;15.10;69.03;99835.00;5088734;28;20123;-85
2023/10/14 05:53:59;;;;;;;8.57;1.95;;;14.50;99.90;;;15.08;68.88;99848.69;5108416;28;20503;-85
2023/10/14 05:56:28;;;;;;;9.07;2.03;;;14.50;99.90;;;15.05;68.66;99843.81;5098404;28;20090;-82
2023/10/14 05:59:00;;;;;;;7.22;1.95;;;14.40;99.90;;;15.03;68.83;99851.34;5107398;28;20069;-82
2023/10/14 06:01:28;;;;;;;8.57;1.75;;;14.40;99.90;;;15.00;68.95;99865.28;5104856;28;20081;-83
2023/10/14 06:03:56;;;;;;;19.38;2.63;;;14.40;99.90;;;14.98;68.77;99871.94;5063445;28;20062;-82
2023/10/14 06:06:24;;;;;;;13.38;2.03;;;14.40;99.90;;;14.97;68.87;99871.13;5112275;28;20106;-82
2023/10/14 06:08:53;;;;;;;13.93;2.05;;;14.40;99.90;;;14.93;68.97;99878.91;5078846;28;20410;-82
2023/10/14 06:11:20;;;;;;;10.27;2.25;;;14.30;99.90;;;14.91;69.07;99886.41;5104638;28;20062;-82
2023/10/14 06:13:47;;;;;;;11.93;2.47;;;14.30;99.90;;;14.90;68.85;99890.16;5124260;27;20058;-82
2023/10/14 06:16:16;;;;;;;10.73;2.03;;;14.30;99.90;;;14.88;68.91;99886.91;5089409;28;20052;-85
2023/10/14 06:18:47;;;;;;;9.38;2.65;;;14.30;99.90;;;14.89;69.08;99893.09;5088458;28;20097;-84
2023/10/14 06:21:15;;;;;;;13.48;2.50;;;14.30;99.90;;;14.87;68.85;99898.69;5091523;28;20044;-84
2023/10/14 06:23:46;;;;;;;13.98;2.15;;;14.20;99.90;;;14.84;69.26;99893.84;5085576;28;20136;-84
2023/10/14 06:26:16;;;;;;;10.45;2.25;;;14.20;99.90;;;14.85;69.02;99895.47;5110519;28;20122;-85
2023/10/14 06:28:44;;;;;;;13.75;2.63;;;14.20;99.90;;;14.85;69.11;99916.94;5099707;28;20464;-85
2023/10/14 06:31:12;;;;;;;12.48;2.47;;;14.20;99.90;;;14.83;69.10;99921.75;5111067;27;20598;-84
2023/10/14 06:33:41;;;;;;;11.52;2.58;;;14.20;99.90;;;14.75;69.35;99914.16;5087274;28;20411;-84
2023/10/14 06:36:13;;;;;;;16.63;2.58;;;14.20;99.90;;;14.77;69.21;99928.13;5091523;28;20498;-84
2023/10/14 06:38:44;;;;;;;9.60;2.00;;;14.20;99.90;;;14.78;69.31;99935.13;5083920;28;20043;-83
2023/10/14 06:41:13;;;;;;;11.38;2.50;;;14.20;99.90;;;14.80;69.43;99940.25;5102902;28;20115;-84
2023/10/14 06:43:43;;;;;;;17.02;2.30;;;14.20;99.90;;;14.69;69.46;99950.06;5096350;28;20078;-85
2023/10/14 06:46:11;;;;;;;13.38;2.58;;;14.10;99.90;;;14.61;69.96;99956.69;5060235;28;20097;-84
2023/10/14 06:48:40;;;;;;;13.00;2.72;;;14.10;99.90;;;14.65;69.86;99965.84;5094697;28;20096;-87
2023/10/14 06:51:11;;;;;;;11.95;2.65;;;14.10;99.90;;;14.70;69.70;99964.31;5102772;28;20047;-85
2023/10/14 06:53:39;;;;;;;14.98;2.85;;;14.20;99.90;;;14.71;69.93;99979.34;5075950;28;20048;-86
2023/10/14 06:56:11;;;;;;;12.57;3.22;;;14.20;99.90;;;14.69;70.06;99979.59;5105564;28;20043;-85
2023/10/14 06:58:39;;;;;;;10.45;2.50;;;14.20;99.90;;;14.59;70.20;99984.81;5097311;28;20044;-85
2023/10/14 07:01:07;;;;;;;13.25;2.42;;;14.10;99.90;;;14.56;70.19;99996.06;5092043;28;20066;-85
2023/10/14 07:03:35;;;;;;;9.73;2.22;;;14.10;99.90;;;14.63;70.22;99994.00;5092316;28;20138;-85
2023/10/14 07:06:04;;;;;;;14.75;2.50;;;14.10;99.90;;;14.63;70.37;99994.00;5096765;28;20056;-85
2023/10/14 07:08:33;;;;;;;15.65;2.67;;;14.10;99.90;;;14.63;70.41;99996.69;5107922;28;20050;-85
2023/10/14 07:11:01;;;;;;;15.50;2.80;;;14.10;99.90;;;14.62;70.68;100001.25;5101037;28;20074;-85
2023/10/14 07:13:31;;;;;;;15.73;2.90;;;14.10;99.90;;;14.63;70.93;100000.16;5098453;28;20113;-86
2023/10/14 07:16:06;;;;;;;14.75;2.72;;;14.10;99.90;;;14.64;71.09;100012.56;5100887;28;20407;-85
2023/10/14 07:18:36;;;;;;;12.95;2.42;;;14.10;99.90;;;14.68;70.72;100008.28;5106971;28;20040;-88
2023/10/14 07:21:08;;;;;;;15.93;3.20;;;14.20;99.90;;;14.75;70.43;100015.38;5087028;28;20453;-84
2023/10/14 07:23:36;;;;;;;14.43;2.90;;;14.20;99.90;;;14.65;70.87;100021.41;5104282;28;20437;-85
2023/10/14 07:26:11;;;;;;;16.75;3.15;;;14.20;99.90;;;14.64;71.20;100019.75;5092583;28;20045;-85
2023/10/14 07:28:42;;;;;;;15.43;2.95;;;14.20;99.90;;;14.76;71.13;100023.16;5107211;28;20620;-85
2023/10/14 07:31:11;;;;;;;17.90;3.47;;;14.30;99.90;;;14.80;71.17;100034.22;5098768;28;20506;-85
2023/10/14 07:33:40;;;;;;;11.05;2.72;;;14.30;99.90;;;14.81;71.23;100031.28;5071780;28;20073;-85
2023/10/14 07:36:11;;;;;;;15.63;3.00;;;14.40;99.90;;;14.73;70.71;100038.94;5077566;28;20093;-85
2023/10/14 07:38:42;;;;;;;;;;;14.30;99.90;;;14.72;71.30;100043.50;5100122;28;20097;-85
2023/10/14 07:41:10;;;;;;;12.33;2.60;;;14.30;99.90;;;14.62;71.81;100046.88;5105171;28;19977;-85
2023/10/14 07:43:37;;;;;;;15.27;3.15;;;14.30;99.90;;;14.63;71.72;100058.41;5098721;28;20309;-85
2023/10/14 07:46:06;;;;;;;16.40;2.78;;;14.30;99.90;;;14.56;71.07;100060.47;5109806;28;20422;-85
2023/10/14 07:48:33;;;;;;;15.57;2.72;;;14.20;99.90;;;14.59;72.30;100051.91;5080159;28;20119;-85
2023/10/14 07:51:02;;;;;;;19.02;3.22;;;14.20;99.90;;;14.61;71.97;100061.34;5096271;28;20041;-85
2023/10/14 07:53:31;;;;;;;16.42;2.83;;;14.30;99.90;;;14.68;72.33;100070.03;5101620;28;20059;-85
2023/10/14 07:55:58;;;;;;;13.07;2.50;;;14.30;99.90;;;14.57;72.29;100062.91;5100432;28;20384;-85
2023/10/14 07:58:28;;;;;;;17.67;3.60;;;14.30;99.90;;;14.61;72.11;100073.97;5105810;28;20482;-85
2023/10/14 08:00:56;;;;;;;21.67;2.95;;;14.30;99.90;;;14.67;72.06;100070.28;5090795;28;20131;-85
2023/10/14 08:03:26;;;;;;;15.73;3.05;;;14.40;99.90;;;14.62;71.13;100076.38;5084504;28;20048;-86
2023/10/14 08:05:59;;;;;;;14.75;2.85;;;14.40;99.90;;;14.55;72.24;100091.06;5109522;28;20044;-86
2023/10/14 08:08:30;;;;;;;11.98;2.85;;;14.30;99.90;;;14.70;72.48;100083.22;5030609;28;20113;-85
2023/10/14 08:11:00;;;;;;;;;;;14.40;99.90;;;14.72;71.74;100086.44;5104503;28;20069;-85
2023/10/14 08:13:31;;;;;;;13.70;3.20;;;14.50;99.90;;;14.62;71.59;100089.81;5103576;28;19969;-85
2023/10/14 08:15:59;;;;;;;15.37;2.80;;;14.40;99.90;;;14.65;71.25;100085.84;5095532;28;20047;-85
2023/10/14 08:18:27;;;;;;;12.38;2.92;;;14.40;99.90;;;14.67;71.41;100087.19;5099036;28;20521;-85
2023/10/14 08:20:56;;;;;;;16.80;3.17;;;14.40;99.90;;;14.66;71.12;100093.63;5102340;28;20039;-85
2023/10/14 08:23:23;;;;;;;14.90;2.95;;;14.40;99.90;;;14.78;72.14;100101.56;5106412;28;20043;-85
2023/10/14 08:25:54;;;;;;;18.02;3.15;;;14.50;99.90;;;14.84;71.30;100102.47;5098648;28;20068;-85
2023/10/14 08:28:23;;;;;;;16.35;3.00;;;14.60;99.90;;;14.91;71.92;100109.25;5094476;28;20036;-85
2023/10/14 08:30:52;;;;;;;14.93;3.28;;;14.70;99.90;;;14.88;70.94;100117.00;5111876;28;20047;-85
2023/10/14 08:33:21;;;;;;;18.80;3.17;;;14.60;99.90;;;14.93;70.34;100115.22;5069721;28;20048;-85
2023/10/14 08:35:51;;;;;;;16.40;3.25;;;14.70;99.90;;;14.91;69.79;100120.00;5107060;28;20048;-85
2023/10/14 08:38:22;;;;;;;17.10;3.13;;;14.70;99.90;;;14.93;71.74;100123.28;5090089;28;20050;-85
2023/10/14 08:40:53;;;;;;;17.98;3.33;;;14.80;99.90;;;14.89;69.97;100130.19;5108423;28;20115;-85
2023/10/14 08:43:28;;;;;;;17.25;2.83;;;14.70;99.90;;;14.96;70.17;100126.50;5102585;28;20054;-85
2023/10/14 08:45:59;;;;;;;12.02;2.95;;;14.80;99.90;;;15.03;70.77;100124.44;5114884;27;20040;-85
2023/10/14 08:48:28;;;;;;;;;;;14.80;99.90;;;15.03;69.30;100127.13;5097836;28;20040;-85
2023/10/14 08:50:58;;;;;;;22.05;3.67;;;14.80;99.90;;;15.04;69.09;100136.84;5091103;28;19949;-85
2023/10/14 08:53:27;;;;;;;16.83;2.97;;;14.90;99.90;;;15.07;69.77;100133.63;5111912;28;20502;-85
2023/10/14 08:55:57;;;;;;;17.80;2.85;;;14.90;99.90;;;14.97;68.97;100133.50;5097532;28;20059;-85
2023/10/14 08:58:28;;;;;;;15.93;2.97;;;14.90;99.90;;;14.96;69.37;100139.94;5089194;28;20071;-85
2023/10/14 09:00:57;;;;;;;16.73;2.97;;;14.90;99.90;;;14.91;68.22;100141.50;5096628;28;20522;-85
2023/10/14 09:03:25;;;;;;;17.10;3.28;;;14.80;99.90;;;14.91;69.00;100144.16;5088187;28;20310;-85
2023/10/14 09:05:53;;;;;;;15.57;2.88;;;14.90;99.90;;;14.82;68.13;100150.22;5107030;28;20044;-85
2023/10/14 09:08:21;;;;;;;17.35;2.85;;;14.80;99.90;;;14.78;69.15;100160.63;5082517;28;20047;-85
2023/10/14 09:10:50;;;;;;;17.33;3.25;;;14.70;99.90;;;14.79;68.83;100156.09;5108080;28;20040;-85
2023/10/14 09:13:20;;;;;;;28.15;4.10;;;14.70;99.90;;;14.82;69.36;100167.13;5099671;28;20042;-85
2023/10/14 09:15:52;;;;;;;18.27;3.78;;;14.80;99.90;;;14.80;68.09;100174.63;5038022;28;20504;-85
2023/10/14 09:18:25;;;;;;;17.75;3.50;;;14.80;99.90;;;14.72;67.62;100168.84;5082555;28;20494;-85
2023/10/14 09:20:54;;;;;;;17.63;2.90;;;14.70;99.90;;;14.77;67.98;100180.47;5107590;28;20054;-85
2023/10/14 09:23:27;;;;;;;15.85;3.28;;;14.70;99.90;;;14.78;67.80;100175.91;5102692;28;20051;-85
2023/10/14 09:25:58;;;;;;;16.60;3.10;;;14.70;99.90;;;14.82;67.63;100185.13;5107217;28;20048;-85
2023/10/14 09:28:28;;;;;;;20.00;3.75;;;14.80;99.90;;;14.83;67.14;100179.50;5091156;28;20470;-85
2023/10/14 09:30:58;;;;;;;18.02;2.92;;;14.80;99.90;;;14.72;67.05;100171.53;5106604;28;20574;-85
2023/10/14 09:33:29;;;;;;;17.20;2.65;;;14.80;99.90;;;14.64;67.25;100181.66;5107959;28;20047;-85
2023/10/14 09:36:02;;;;;;;18.20;2.97;;;14.70;99.90;;;14.84;68.08;100189.19;5097637;28;20044;-85
2023/10/14 09:38:32;;;;;;;18.00;2.95;;;14.80;99.90;;;14.91;67.41;100183.63;5124649;27;20431;-85
2023/10/14 09:41:03;;;;;;;13.23;2.70;;;14.90;99.90;;;14.91;67.53;100191.69;5074831;28;20425;-85
2023/10/14 09:43:30;;;;;;;;;;;15.00;99.90;;;15.03;67.13;100194.28;5085426;28;20051;-85
2023/10/14 09:46:05;;;;;;;30.85;3.47;;;15.10;99.90;;;15.07;67.24;100192.72;5111338;28;19919;-85
2023/10/14 09:48:36;;;;;;;16.58;2.30;;;15.20;99.90;;;15.02;64.51;100193.47;5104937;28;20035;-85
2023/10/14 09:51:12;;;;;;;11.90;2.40;;;15.20;99.90;;;15.04;65.29;100193.22;5096741;28;20051;-85
2023/10/14 09:53:40;;;;;;;13.02;3.03;;;15.20;99.90;;;15.13;64.15;100194.44;5094563;28;20102;-84
2023/10/14 09:56:10;;;;;;;13.95;3.28;;;15.20;99.90;;;15.14;65.53;100196.88;5082738;28;20037;-84
2023/10/14 09:58:41;;;;;;;11.90;2.38;;;15.30;99.90;;;15.23;65.56;100194.56;5107208;28;20044;-84
2023/10/14 10:01:12;;;;;;;13.45;2.58;;;15.30;99.90;;;15.26;64.79;100187.88;5092194;28;20040;-84
2023/10/14 10:03:48;;;;;;;17.10;2.97;;;15.30;99.90;;;15.29;63.14;100201.63;5096957;28;20055;-84
2023/10/14 10:06:35;;;;;;;14.75;2.83;;;15.30;99.90;;;15.33;62.89;100204.63;5078828;28;20036;-84
2023/10/14 10:09:34;;;;;;;15.90;3.20;;;15.30;99.90;;;15.20;64.12;100205.81;5078964;28;20043;-84
2023/10/14 10:12:04;;;;;;;24.10;3.30;;;15.20;99.90;;;15.23;63.39;100216.06;5096896;28;20109;-84
2023/10/14 10:14:42;;;;;;;17.67;2.70;;;15.20;99.90;;;15.24;62.92;100206.94;5083575;28;20039;-85
2023/10/14 10:17:12;;;;;;;17.30;3.20;;;15.20;99.90;;;15.02;61.98;100219.50;5095021;28;20425;-84
2023/10/14 10:20:09;;;;;;;14.87;3.13;;;15.00;99.90;;;15.03;62.23;100223.81;5080004;28;20047;-85
2023/10/14 10:22:50;;;;;;;10.43;2.70;;;14.90;99.90;;;15.06;64.37;100229.50;5084869;28;20301;-85
2023/10/14 10:25:19;;;;;;;16.60;3.00;;;14.90;99.90;;;15.08;63.68;100231.94;5101313;28;20113;-84
2023/10/14 10:27:49;;;;;;;18.50;3.08;;;15.00;99.90;;;15.04;62.82;100231.66;5108718;28;20061;-85
2023/10/14 10:30:20;;;;;;;;;;;15.00;99.90;;;15.04;62.09;100234.31;5098133;28;20043;-85
2023/10/14 10:32:52;;;;;;;11.73;2.67;;;15.00;99.90;;;15.05;63.04;100235.94;5106911;28;19926;-84
2023/10/14 10:35:21;;;;;;;13.02;2.92;;;15.00;99.90;;;15.17;63.58;100233.16;5105022;28;20039;-85